sensor_id;sensor_type;location;lat;lon;timestamp;pressure;altitude;pressure_sealevel;temperature;humidity
80976;BME280;70437;49.466;11.002;2023-12-29T00:02:07;98163.00;;;9.69;100.00
80976;BME280;70437;49.466;11.002;2023-12-29T00:04:37;98167.50;;;9.69;100.00
80976;BME280;70437;49.466;11.002;2023-12-29T00:07:06;98165.94;;;9.61;100.00
80976;BME280;70437;49.466;11.002;2023-12-29T00:09:37;98168.44;;;9.56;100.00
80976;BME280;70437;49.466;11.002;2023-12-29T00:12:09;98168.16;;;9.64;100.00
80976;BME280;70437;49.466;11.002;2023-12-29T00:14:38;98170.53;;;9.79;100.00
80976;BME280;70437;49.466;11.002;2023-12-29T00:17:08;98182.38;;;9.90;100.00
80976;BME280;70437;49.466;11.002;2023-12-29T00:19:42;98174.34;;;9.90;100.00
80976;BME280;70437;49.466;11.002;2023-12-29T00:22:15;98164.91;;;9.87;100.00
80976;BME280;70437;49.466;11.002;2023-12-29T00:24:44;98163.09;;;9.81;100.00
80976;BME280;70437;49.466;11.002;2023-12-29T00:27:13;98172.25;;;9.67;100.00
80976;BME280;70437;49.466;11.002;2023-12-29T00:29:42;98170.66;;;9.59;100.00
80976;BME280;70437;49.466;11.002;2023-12-29T00:32:12;98168.47;;;9.49;100.00
80976;BME280;70437;49.466;11.002;2023-12-29T00:34:43;98167.06;;;9.47;100.00
80976;BME280;70437;49.466;11.002;2023-12-29T00:37:12;98168.97;;;9.33;100.00
80976;BME280;70437;49.466;11.002;2023-12-29T00:39:41;98161.16;;;9.31;100.00
80976;BME280;70437;49.466;11.002;2023-12-29T00:42:11;98158.47;;;9.38;100.00
80976;BME280;70437;49.466;11.002;2023-12-29T00:44:41;98157.66;;;9.38;100.00
80976;BME280;70437;49.466;11.002;2023-12-29T00:47:09;98158.41;;;9.45;100.00
80976;BME280;70437;49.466;11.002;2023-12-29T00:49:39;98161.81;;;9.58;100.00
80976;BME280;70437;49.466;11.002;2023-12-29T00:52:11;98155.81;;;9.63;100.00
80976;BME280;70437;49.466;11.002;2023-12-29T00:54:41;98150.03;;;9.66;100.00
80976;BME280;70437;49.466;11.002;2023-12-29T00:57:12;98150.72;;;9.55;100.00
80976;BME280;70437;49.466;11.002;2023-12-29T00:59:42;98147.22;;;9.54;100.00
80976;BME280;70437;49.466;11.002;2023-12-29T01:02:13;98147.78;;;9.63;100.00
80976;BME280;70437;49.466;11.002;2023-12-29T01:04:42;98153.91;;;9.70;100.00
80976;BME280;70437;49.466;11.002;2023-12-29T01:07:12;98168.84;;;9.84;100.00
80976;BME280;70437;49.466;11.002;2023-12-29T01:09:42;98166.16;;;9.84;100.00
80976;BME280;70437;49.466;11.002;2023-12-29T01:12:11;98171.00;;;9.94;100.00
80976;BME280;70437;49.466;11.002;2023-12-29T01:14:42;98168.97;;;9.96;100.00
80976;BME280;70437;49.466;11.002;2023-12-29T01:17:13;98160.31;;;9.94;100.00
80976;BME280;70437;49.466;11.002;2023-12-29T01:19:42;98158.09;;;9.91;100.00
80976;BME280;70437;49.466;11.002;2023-12-29T01:22:14;98151.16;;;9.83;100.00
80976;BME280;70437;49.466;11.002;2023-12-29T01:24:44;98154.88;;;9.82;100.00
80976;BME280;70437;49.466;11.002;2023-12-29T01:27:13;98164.72;;;9.82;100.00
80976;BME280;70437;49.466;11.002;2023-12-29T01:29:43;98161.19;;;9.88;100.00
80976;BME280;70437;49.466;11.002;2023-12-29T01:32:12;98158.66;;;9.68;100.00
80976;BME280;70437;49.466;11.002;2023-12-29T01:34:41;98143.25;;;9.63;100.00
80976;BME280;70437;49.466;11.002;2023-12-29T01:37:10;98141.97;;;9.41;100.00
80976;BME280;70437;49.466;11.002;2023-12-29T01:39:40;98158.31;;;9.58;100.00
80976;BME280;70437;49.466;11.002;2023-12-29T01:42:11;98145.94;;;9.63;100.00
80976;BME280;70437;49.466;11.002;2023-12-29T01:44:40;98153.75;;;9.65;100.00
80976;BME280;70437;49.466;11.002;2023-12-29T01:47:11;98155.78;;;9.70;100.00
80976;BME280;70437;49.466;11.002;2023-12-29T01:49:45;98143.94;;;9.84;100.00
80976;BME280;70437;49.466;11.002;2023-12-29T01:52:16;98139.72;;;9.95;100.00
80976;BME280;70437;49.466;11.002;2023-12-29T01:54:49;98138.03;;;10.00;100.00
80976;BME280;70437;49.466;11.002;2023-12-29T01:57:22;98137.00;;;10.01;100.00
80976;BME280;70437;49.466;11.002;2023-12-29T01:59:52;98137.19;;;10.00;100.00
80976;BME280;70437;49.466;11.002;2023-12-29T02:02:22;98124.03;;;9.98;100.00
80976;BME280;70437;49.466;11.002;2023-12-29T02:04:51;98123.34;;;10.09;100.00
80976;BME280;70437;49.466;11.002;2023-12-29T02:07:21;98130.31;;;9.85;100.00
80976;BME280;70437;49.466;11.002;2023-12-29T02:09:54;98132.13;;;9.67;100.00
80976;BME280;70437;49.466;11.002;2023-12-29T02:12:23;98131.69;;;9.70;100.00
80976;BME280;70437;49.466;11.002;2023-12-29T02:14:52;98132.81;;;9.87;100.00
80976;BME280;70437;49.466;11.002;2023-12-29T02:17:24;98118.38;;;9.88;100.00
80976;BME280;70437;49.466;11.002;2023-12-29T02:19:55;98115.47;;;9.90;100.00
80976;BME280;70437;49.466;11.002;2023-12-29T02:22:24;98111.59;;;9.85;100.00
80976;BME280;70437;49.466;11.002;2023-12-29T02:24:54;98120.91;;;9.83;100.00
80976;BME280;70437;49.466;11.002;2023-12-29T02:27:30;98115.69;;;9.88;100.00
80976;BME280;70437;49.466;11.002;2023-12-29T02:30:08;98113.88;;;9.82;100.00
80976;BME280;70437;49.466;11.002;2023-12-29T02:32:40;98122.13;;;9.80;100.00
80976;BME280;70437;49.466;11.002;2023-12-29T02:35:13;98127.09;;;9.77;100.00
80976;BME280;70437;49.466;11.002;2023-12-29T02:37:44;98129.41;;;9.73;100.00
80976;BME280;70437;49.466;11.002;2023-12-29T02:40:15;98126.56;;;9.68;100.00
80976;BME280;70437;49.466;11.002;2023-12-29T02:42:46;98126.22;;;9.58;100.00
80976;BME280;70437;49.466;11.002;2023-12-29T02:45:16;98127.53;;;9.49;100.00
80976;BME280;70437;49.466;11.002;2023-12-29T02:47:45;98118.72;;;9.42;100.00
80976;BME280;70437;49.466;11.002;2023-12-29T02:50:16;98115.47;;;9.33;100.00
80976;BME280;70437;49.466;11.002;2023-12-29T02:52:46;98102.34;;;9.31;100.00
80976;BME280;70437;49.466;11.002;2023-12-29T02:55:16;98101.28;;;9.39;100.00
80976;BME280;70437;49.466;11.002;2023-12-29T02:57:45;98101.91;;;9.34;100.00
80976;BME280;70437;49.466;11.002;2023-12-29T03:00:16;98093.28;;;9.32;100.00
80976;BME280;70437;49.466;11.002;2023-12-29T03:02:45;98079.06;;;9.39;100.00
80976;BME280;70437;49.466;11.002;2023-12-29T03:05:14;98080.44;;;9.48;100.00
80976;BME280;70437;49.466;11.002;2023-12-29T03:07:43;98080.44;;;9.48;100.00
80976;BME280;70437;49.466;11.002;2023-12-29T03:10:14;98079.16;;;9.50;100.00
80976;BME280;70437;49.466;11.002;2023-12-29T03:12:44;98079.06;;;9.39;100.00
80976;BME280;70437;49.466;11.002;2023-12-29T03:15:13;98077.97;;;9.46;100.00
80976;BME280;70437;49.466;11.002;2023-12-29T03:17:44;98067.00;;;9.29;100.00
80976;BME280;70437;49.466;11.002;2023-12-29T03:20:13;98066.84;;;9.24;100.00
80976;BME280;70437;49.466;11.002;2023-12-29T03:22:42;98067.28;;;9.15;100.00
80976;BME280;70437;49.466;11.002;2023-12-29T03:25:13;98062.13;;;9.20;100.00
80976;BME280;70437;49.466;11.002;2023-12-29T03:27:44;98060.31;;;9.14;100.00
80976;BME280;70437;49.466;11.002;2023-12-29T03:30:13;98060.28;;;9.20;100.00
80976;BME280;70437;49.466;11.002;2023-12-29T03:32:43;98051.63;;;9.25;100.00
80976;BME280;70437;49.466;11.002;2023-12-29T03:35:14;98051.66;;;9.18;100.00
80976;BME280;70437;49.466;11.002;2023-12-29T03:37:44;98054.94;;;9.20;100.00
80976;BME280;70437;49.466;11.002;2023-12-29T03:40:14;98057.06;;;9.11;100.00
80976;BME280;70437;49.466;11.002;2023-12-29T03:42:45;98053.91;;;9.15;100.00
80976;BME280;70437;49.466;11.002;2023-12-29T03:45:15;98053.81;;;9.03;100.00
80976;BME280;70437;49.466;11.002;2023-12-29T03:47:45;98043.78;;;8.98;100.00
80976;BME280;70437;49.466;11.002;2023-12-29T03:50:14;98045.25;;;8.88;100.00
80976;BME280;70437;49.466;11.002;2023-12-29T03:52:43;98037.31;;;8.74;100.00
80976;BME280;70437;49.466;11.002;2023-12-29T03:55:12;98036.97;;;8.64;100.00
80976;BME280;70437;49.466;11.002;2023-12-29T03:57:42;98045.44;;;8.54;100.00
80976;BME280;70437;49.466;11.002;2023-12-29T04:00:14;98046.84;;;8.57;100.00
80976;BME280;70437;49.466;11.002;2023-12-29T04:02:43;98053.22;;;8.56;100.00
80976;BME280;70437;49.466;11.002;2023-12-29T04:05:13;98050.72;;;8.68;100.00
80976;BME280;70437;49.466;11.002;2023-12-29T04:07:42;98061.34;;;8.81;100.00
80976;BME280;70437;49.466;11.002;2023-12-29T04:10:12;98052.34;;;8.75;100.00
80976;BME280;70437;49.466;11.002;2023-12-29T04:12:41;98047.34;;;8.79;100.00
80976;BME280;70437;49.466;11.002;2023-12-29T04:15:11;98047.97;;;8.81;100.00
80976;BME280;70437;49.466;11.002;2023-12-29T04:17:42;98063.59;;;8.84;100.00
80976;BME280;70437;49.466;11.002;2023-12-29T04:20:11;98062.50;;;8.92;100.00
80976;BME280;70437;49.466;11.002;2023-12-29T04:22:42;98055.56;;;8.84;100.00
80976;BME280;70437;49.466;11.002;2023-12-29T04:25:11;98045.09;;;8.82;100.00
80976;BME280;70437;49.466;11.002;2023-12-29T04:27:41;98046.28;;;8.93;100.00
80976;BME280;70437;49.466;11.002;2023-12-29T04:30:10;98041.94;;;8.92;100.00
80976;BME280;70437;49.466;11.002;2023-12-29T04:32:39;98034.94;;;8.98;100.00
80976;BME280;70437;49.466;11.002;2023-12-29T04:35:11;98039.06;;;8.94;100.00
80976;BME280;70437;49.466;11.002;2023-12-29T04:37:43;98036.59;;;8.92;100.00
80976;BME280;70437;49.466;11.002;2023-12-29T04:40:13;98036.56;;;8.99;100.00
80976;BME280;70437;49.466;11.002;2023-12-29T04:42:42;98033.03;;;9.05;100.00
80976;BME280;70437;49.466;11.002;2023-12-29T04:45:12;98043.78;;;8.92;100.00
80976;BME280;70437;49.466;11.002;2023-12-29T04:47:40;98039.50;;;8.91;100.00
80976;BME280;70437;49.466;11.002;2023-12-29T04:50:11;98031.53;;;9.16;100.00
80976;BME280;70437;49.466;11.002;2023-12-29T04:52:40;98052.28;;;9.14;100.00
80976;BME280;70437;49.466;11.002;2023-12-29T04:55:09;98053.06;;;9.21;100.00
80976;BME280;70437;49.466;11.002;2023-12-29T04:57:43;98059.00;;;9.23;100.00
80976;BME280;70437;49.466;11.002;2023-12-29T05:00:13;98055.53;;;9.22;100.00
80976;BME280;70437;49.466;11.002;2023-12-29T05:02:43;98061.94;;;9.15;100.00
80976;BME280;70437;49.466;11.002;2023-12-29T05:05:14;98047.47;;;9.29;100.00
80976;BME280;70437;49.466;11.002;2023-12-29T05:07:43;98048.84;;;9.38;100.00
80976;BME280;70437;49.466;11.002;2023-12-29T05:10:12;98055.00;;;9.39;100.00
80976;BME280;70437;49.466;11.002;2023-12-29T05:12:41;98044.63;;;9.49;100.00
80976;BME280;70437;49.466;11.002;2023-12-29T05:15:10;98040.47;;;9.53;100.00
80976;BME280;70437;49.466;11.002;2023-12-29T05:17:39;98037.72;;;9.59;100.00
80976;BME280;70437;49.466;11.002;2023-12-29T05:20:10;98038.13;;;9.63;100.00
80976;BME280;70437;49.466;11.002;2023-12-29T05:22:42;98037.47;;;9.68;100.00
80976;BME280;70437;49.466;11.002;2023-12-29T05:25:12;98039.59;;;9.59;100.00
80976;BME280;70437;49.466;11.002;2023-12-29T05:27:41;98038.56;;;9.60;100.00
80976;BME280;70437;49.466;11.002;2023-12-29T05:30:11;98039.50;;;9.47;100.00
80976;BME280;70437;49.466;11.002;2023-12-29T05:32:41;98045.16;;;9.32;100.00
80976;BME280;70437;49.466;11.002;2023-12-29T05:35:10;98048.72;;;9.26;100.00
80976;BME280;70437;49.466;11.002;2023-12-29T05:37:41;98050.19;;;9.22;100.00
80976;BME280;70437;49.466;11.002;2023-12-29T05:40:11;98054.22;;;9.06;100.00
80976;BME280;70437;49.466;11.002;2023-12-29T05:42:42;98051.72;;;9.05;100.00
80976;BME280;70437;49.466;11.002;2023-12-29T05:45:15;98043.94;;;9.03;100.00
80976;BME280;70437;49.466;11.002;2023-12-29T05:47:44;98045.97;;;9.08;100.00
80976;BME280;70437;49.466;11.002;2023-12-29T05:50:14;98046.88;;;8.95;100.00
80976;BME280;70437;49.466;11.002;2023-12-29T05:52:45;98051.81;;;8.92;100.00
80976;BME280;70437;49.466;11.002;2023-12-29T05:55:18;98054.09;;;8.88;100.00
80976;BME280;70437;49.466;11.002;2023-12-29T05:57:47;98048.38;;;8.84;100.00
80976;BME280;70437;49.466;11.002;2023-12-29T06:00:17;98054.72;;;8.90;100.00
80976;BME280;70437;49.466;11.002;2023-12-29T06:02:46;98040.38;;;8.78;100.00
80976;BME280;70437;49.466;11.002;2023-12-29T06:05:15;98043.53;;;8.68;100.00
80976;BME280;70437;49.466;11.002;2023-12-29T06:07:46;98050.78;;;8.54;100.00
80976;BME280;70437;49.466;11.002;2023-12-29T06:10:16;98047.28;;;8.54;100.00
80976;BME280;70437;49.466;11.002;2023-12-29T06:12:45;98033.94;;;8.54;100.00
80976;BME280;70437;49.466;11.002;2023-12-29T06:15:16;98029.66;;;8.53;100.00
80976;BME280;70437;49.466;11.002;2023-12-29T06:17:47;98023.72;;;8.44;100.00
80976;BME280;70437;49.466;11.002;2023-12-29T06:20:16;98025.38;;;8.39;100.00
80976;BME280;70437;49.466;11.002;2023-12-29T06:22:46;98030.88;;;8.50;100.00
80976;BME280;70437;49.466;11.002;2023-12-29T06:25:16;98021.47;;;8.41;100.00
80976;BME280;70437;49.466;11.002;2023-12-29T06:27:46;98013.69;;;8.40;100.00
80976;BME280;70437;49.466;11.002;2023-12-29T06:30:16;98028.84;;;8.39;100.00
80976;BME280;70437;49.466;11.002;2023-12-29T06:32:45;98016.53;;;8.38;100.00
80976;BME280;70437;49.466;11.002;2023-12-29T06:35:16;98018.00;;;8.41;100.00
80976;BME280;70437;49.466;11.002;2023-12-29T06:37:48;98007.44;;;8.52;100.00
80976;BME280;70437;49.466;11.002;2023-12-29T06:40:18;98006.72;;;8.70;100.00
80976;BME280;70437;49.466;11.002;2023-12-29T06:42:47;97995.69;;;8.60;100.00
80976;BME280;70437;49.466;11.002;2023-12-29T06:45:18;98005.78;;;8.58;100.00
80976;BME280;70437;49.466;11.002;2023-12-29T06:47:47;98006.03;;;8.43;100.00
80976;BME280;70437;49.466;11.002;2023-12-29T06:50:17;98015.44;;;8.59;100.00
80976;BME280;70437;49.466;11.002;2023-12-29T06:52:47;98023.78;;;8.69;100.00
80976;BME280;70437;49.466;11.002;2023-12-29T06:55:16;98016.13;;;8.79;100.00
80976;BME280;70437;49.466;11.002;2023-12-29T06:57:46;98022.88;;;8.89;100.00
80976;BME280;70437;49.466;11.002;2023-12-29T07:00:20;98023.41;;;8.97;100.00
80976;BME280;70437;49.466;11.002;2023-12-29T07:02:49;98028.31;;;9.00;100.00
80976;BME280;70437;49.466;11.002;2023-12-29T07:05:19;98026.22;;;9.09;100.00
80976;BME280;70437;49.466;11.002;2023-12-29T07:07:49;98030.75;;;9.08;100.00
80976;BME280;70437;49.466;11.002;2023-12-29T07:10:19;98028.47;;;9.12;100.00
80976;BME280;70437;49.466;11.002;2023-12-29T07:12:48;98032.78;;;9.13;100.00
80976;BME280;70437;49.466;11.002;2023-12-29T07:15:18;98035.22;;;9.15;100.00
80976;BME280;70437;49.466;11.002;2023-12-29T07:17:49;98031.41;;;8.97;100.00
80976;BME280;70437;49.466;11.002;2023-12-29T07:20:18;98040.38;;;9.16;100.00
80976;BME280;70437;49.466;11.002;2023-12-29T07:22:55;98047.00;;;9.32;100.00
80976;BME280;70437;49.466;11.002;2023-12-29T07:25:27;98043.03;;;9.16;100.00
80976;BME280;70437;49.466;11.002;2023-12-29T07:28:00;98046.19;;;9.31;100.00
80976;BME280;70437;49.466;11.002;2023-12-29T07:30:29;98044.47;;;9.44;100.00
80976;BME280;70437;49.466;11.002;2023-12-29T07:33:02;98043.03;;;9.41;100.00
80976;BME280;70437;49.466;11.002;2023-12-29T07:35:32;98046.81;;;9.33;100.00
80976;BME280;70437;49.466;11.002;2023-12-29T07:38:04;98044.03;;;9.47;100.00
80976;BME280;70437;49.466;11.002;2023-12-29T07:40:34;98042.03;;;9.42;100.00
80976;BME280;70437;49.466;11.002;2023-12-29T07:43:04;98045.00;;;9.52;100.00
80976;BME280;70437;49.466;11.002;2023-12-29T07:45:35;98047.53;;;9.47;100.00
80976;BME280;70437;49.466;11.002;2023-12-29T07:48:07;98052.53;;;9.62;100.00
80976;BME280;70437;49.466;11.002;2023-12-29T07:50:38;98049.63;;;9.88;100.00
80976;BME280;70437;49.466;11.002;2023-12-29T07:53:12;98056.06;;;9.81;100.00
80976;BME280;70437;49.466;11.002;2023-12-29T07:55:43;98061.59;;;10.04;100.00
80976;BME280;70437;49.466;11.002;2023-12-29T07:58:17;98072.09;;;10.06;100.00
80976;BME280;70437;49.466;11.002;2023-12-29T08:00:49;98079.47;;;10.10;100.00
80976;BME280;70437;49.466;11.002;2023-12-29T08:03:18;98083.22;;;10.28;100.00
80976;BME280;70437;49.466;11.002;2023-12-29T08:05:48;98084.84;;;10.29;100.00
80976;BME280;70437;49.466;11.002;2023-12-29T08:08:19;98097.34;;;10.53;100.00
80976;BME280;70437;49.466;11.002;2023-12-29T08:10:50;98100.16;;;10.40;100.00
80976;BME280;70437;49.466;11.002;2023-12-29T08:13:20;98099.88;;;10.30;100.00
80976;BME280;70437;49.466;11.002;2023-12-29T08:15:53;98097.03;;;10.25;100.00
80976;BME280;70437;49.466;11.002;2023-12-29T08:18:23;98099.59;;;10.13;100.00
80976;BME280;70437;49.466;11.002;2023-12-29T08:20:52;98095.59;;;10.22;100.00
80976;BME280;70437;49.466;11.002;2023-12-29T08:23:22;98106.94;;;10.24;100.00
80976;BME280;70437;49.466;11.002;2023-12-29T08:25:53;98103.38;;;10.30;100.00
80976;BME280;70437;49.466;11.002;2023-12-29T08:28:24;98101.06;;;10.34;100.00
80976;BME280;70437;49.466;11.002;2023-12-29T08:30:54;98092.31;;;10.27;100.00
80976;BME280;70437;49.466;11.002;2023-12-29T08:33:26;98094.16;;;10.45;100.00
80976;BME280;70437;49.466;11.002;2023-12-29T08:35:55;98101.69;;;10.36;100.00
80976;BME280;70437;49.466;11.002;2023-12-29T08:38:31;98097.44;;;10.22;100.00
80976;BME280;70437;49.466;11.002;2023-12-29T08:41:02;98109.47;;;10.37;100.00
80976;BME280;70437;49.466;11.002;2023-12-29T08:43:34;98110.16;;;10.33;100.00
80976;BME280;70437;49.466;11.002;2023-12-29T08:46:04;98111.78;;;10.52;100.00
80976;BME280;70437;49.466;11.002;2023-12-29T08:48:33;98114.16;;;10.60;100.00
80976;BME280;70437;49.466;11.002;2023-12-29T08:51:04;98111.25;;;10.44;100.00
80976;BME280;70437;49.466;11.002;2023-12-29T08:53:35;98112.22;;;10.68;100.00
80976;BME280;70437;49.466;11.002;2023-12-29T08:56:05;98110.13;;;10.70;100.00
80976;BME280;70437;49.466;11.002;2023-12-29T08:58:35;98112.09;;;10.93;100.00
80976;BME280;70437;49.466;11.002;2023-12-29T09:01:05;98121.09;;;10.98;100.00
80976;BME280;70437;49.466;11.002;2023-12-29T09:03:37;98120.28;;;10.49;100.00
80976;BME280;70437;49.466;11.002;2023-12-29T09:06:09;98115.66;;;10.56;100.00
80976;BME280;70437;49.466;11.002;2023-12-29T09:08:40;98126.31;;;10.45;100.00
80976;BME280;70437;49.466;11.002;2023-12-29T09:11:09;98128.91;;;10.51;100.00
80976;BME280;70437;49.466;11.002;2023-12-29T09:13:44;98124.44;;;10.45;100.00
80976;BME280;70437;49.466;11.002;2023-12-29T09:16:15;98135.06;;;10.52;100.00
80976;BME280;70437;49.466;11.002;2023-12-29T09:18:44;98131.19;;;10.48;100.00
80976;BME280;70437;49.466;11.002;2023-12-29T09:21:15;98128.03;;;11.06;100.00
80976;BME280;70437;49.466;11.002;2023-12-29T09:23:47;98111.69;;;11.37;100.00
80976;BME280;70437;49.466;11.002;2023-12-29T09:26:18;98117.66;;;11.39;100.00
80976;BME280;70437;49.466;11.002;2023-12-29T09:28:47;98123.16;;;11.14;100.00
80976;BME280;70437;49.466;11.002;2023-12-29T09:31:17;98122.84;;;10.74;100.00
80976;BME280;70437;49.466;11.002;2023-12-29T09:33:50;98122.28;;;10.72;100.00
80976;BME280;70437;49.466;11.002;2023-12-29T09:36:19;98123.63;;;10.63;100.00
80976;BME280;70437;49.466;11.002;2023-12-29T09:38:50;98131.19;;;10.66;100.00
80976;BME280;70437;49.466;11.002;2023-12-29T09:41:20;98124.28;;;10.77;100.00
80976;BME280;70437;49.466;11.002;2023-12-29T09:43:52;98121.28;;;10.67;100.00
80976;BME280;70437;49.466;11.002;2023-12-29T09:46:22;98112.16;;;10.56;100.00
80976;BME280;70437;49.466;11.002;2023-12-29T09:48:56;98120.63;;;10.71;100.00
80976;BME280;70437;49.466;11.002;2023-12-29T09:51:27;98121.28;;;10.67;100.00
80976;BME280;70437;49.466;11.002;2023-12-29T09:53:57;98106.63;;;10.69;100.00
80976;BME280;70437;49.466;11.002;2023-12-29T09:56:28;98107.91;;;10.67;100.00
80976;BME280;70437;49.466;11.002;2023-12-29T09:58:58;98105.81;;;10.69;100.00
80976;BME280;70437;49.466;11.002;2023-12-29T10:01:28;98099.19;;;10.71;100.00
80976;BME280;70437;49.466;11.002;2023-12-29T10:04:01;98101.94;;;10.83;100.00
80976;BME280;70437;49.466;11.002;2023-12-29T10:06:34;98106.84;;;10.86;100.00
80976;BME280;70437;49.466;11.002;2023-12-29T10:09:07;98107.53;;;10.81;100.00
80976;BME280;70437;49.466;11.002;2023-12-29T10:11:40;98112.97;;;11.35;100.00
80976;BME280;70437;49.466;11.002;2023-12-29T10:14:18;98106.03;;;11.16;100.00
80976;BME280;70437;49.466;11.002;2023-12-29T10:17:00;98092.78;;;11.02;100.00
80976;BME280;70437;49.466;11.002;2023-12-29T10:19:39;98108.88;;;10.72;100.00
80976;BME280;70437;49.466;11.002;2023-12-29T10:22:18;98098.53;;;10.57;100.00
80976;BME280;70437;49.466;11.002;2023-12-29T10:24:50;98104.56;;;10.53;100.00
80976;BME280;70437;49.466;11.002;2023-12-29T10:27:22;98088.19;;;10.43;100.00
80976;BME280;70437;49.466;11.002;2023-12-29T10:29:53;98088.19;;;10.61;100.00
80976;BME280;70437;49.466;11.002;2023-12-29T10:32:22;98087.47;;;10.54;100.00
80976;BME280;70437;49.466;11.002;2023-12-29T10:35:07;98083.19;;;10.65;100.00
80976;BME280;70437;49.466;11.002;2023-12-29T10:37:37;98082.13;;;10.84;100.00
80976;BME280;70437;49.466;11.002;2023-12-29T10:40:08;98078.22;;;10.98;100.00
80976;BME280;70437;49.466;11.002;2023-12-29T10:42:51;98080.19;;;10.91;100.00
80976;BME280;70437;49.466;11.002;2023-12-29T10:45:22;98074.50;;;10.99;100.00
80976;BME280;70437;49.466;11.002;2023-12-29T10:47:53;98081.22;;;10.90;100.00
80976;BME280;70437;49.466;11.002;2023-12-29T10:50:22;98070.34;;;11.03;100.00
80976;BME280;70437;49.466;11.002;2023-12-29T10:53:10;98066.63;;;11.16;100.00
80976;BME280;70437;49.466;11.002;2023-12-29T10:55:41;98063.13;;;11.16;100.00
80976;BME280;70437;49.466;11.002;2023-12-29T10:58:11;98061.56;;;11.50;100.00
80976;BME280;70437;49.466;11.002;2023-12-29T11:00:40;98052.47;;;11.51;100.00
80976;BME280;70437;49.466;11.002;2023-12-29T11:03:14;98047.44;;;11.43;100.00
80976;BME280;70437;49.466;11.002;2023-12-29T11:05:48;98046.81;;;11.82;100.00
80976;BME280;70437;49.466;11.002;2023-12-29T11:08:20;98054.28;;;12.16;100.00
80976;BME280;70437;49.466;11.002;2023-12-29T11:10:51;98048.09;;;12.03;100.00
80976;BME280;70437;49.466;11.002;2023-12-29T11:13:26;98038.63;;;12.12;100.00
80976;BME280;70437;49.466;11.002;2023-12-29T11:15:58;98044.09;;;12.18;100.00
80976;BME280;70437;49.466;11.002;2023-12-29T11:18:31;98039.09;;;12.09;100.00
80976;BME280;70437;49.466;11.002;2023-12-29T11:21:02;98037.81;;;12.00;100.00
80976;BME280;70437;49.466;11.002;2023-12-29T11:23:33;98037.69;;;11.72;100.00
80976;BME280;70437;49.466;11.002;2023-12-29T11:26:06;98034.28;;;11.64;100.00
80976;BME280;70437;49.466;11.002;2023-12-29T11:28:37;98037.88;;;11.47;100.00
80976;BME280;70437;49.466;11.002;2023-12-29T11:31:07;98035.09;;;11.42;100.00
80976;BME280;70437;49.466;11.002;2023-12-29T11:33:40;98038.25;;;11.50;100.00
80976;BME280;70437;49.466;11.002;2023-12-29T11:36:16;98026.25;;;11.53;100.00
80976;BME280;70437;49.466;11.002;2023-12-29T11:39:03;98023.53;;;11.64;100.00
80976;BME280;70437;49.466;11.002;2023-12-29T11:41:39;98021.78;;;11.47;100.00
80976;BME280;70437;49.466;11.002;2023-12-29T11:44:10;98036.22;;;11.34;100.00
80976;BME280;70437;49.466;11.002;2023-12-29T11:46:43;98029.06;;;11.16;100.00
80976;BME280;70437;49.466;11.002;2023-12-29T11:49:15;98020.63;;;11.43;100.00
80976;BME280;70437;49.466;11.002;2023-12-29T11:51:47;98020.03;;;11.41;100.00
80976;BME280;70437;49.466;11.002;2023-12-29T11:54:22;98020.63;;;11.31;100.00
80976;BME280;70437;49.466;11.002;2023-12-29T11:56:56;98009.44;;;11.57;100.00
80976;BME280;70437;49.466;11.002;2023-12-29T11:59:26;98009.69;;;11.68;100.00
80976;BME280;70437;49.466;11.002;2023-12-29T12:01:59;98011.88;;;11.59;100.00
80976;BME280;70437;49.466;11.002;2023-12-29T12:04:37;98019.03;;;11.88;100.00
80976;BME280;70437;49.466;11.002;2023-12-29T12:07:15;98015.31;;;11.89;100.00
80976;BME280;70437;49.466;11.002;2023-12-29T12:09:46;98014.38;;;11.84;100.00
80976;BME280;70437;49.466;11.002;2023-12-29T12:12:40;98014.22;;;11.55;100.00
80976;BME280;70437;49.466;11.002;2023-12-29T12:15:32;98012.81;;;11.64;100.00
80976;BME280;70437;49.466;11.002;2023-12-29T12:18:06;98006.63;;;11.41;100.00
80976;BME280;70437;49.466;11.002;2023-12-29T12:20:38;98004.91;;;11.58;100.00
80976;BME280;70437;49.466;11.002;2023-12-29T12:23:11;98007.81;;;11.80;100.00
80976;BME280;70437;49.466;11.002;2023-12-29T12:25:41;98006.06;;;11.62;100.00
80976;BME280;70437;49.466;11.002;2023-12-29T12:28:14;97984.72;;;11.67;100.00
80976;BME280;70437;49.466;11.002;2023-12-29T12:30:44;97997.88;;;11.69;100.00
80976;BME280;70437;49.466;11.002;2023-12-29T12:33:17;97987.41;;;11.91;100.00
80976;BME280;70437;49.466;11.002;2023-12-29T12:35:59;97979.34;;;11.91;100.00
80976;BME280;70437;49.466;11.002;2023-12-29T12:38:29;97988.78;;;11.81;100.00
80976;BME280;70437;49.466;11.002;2023-12-29T12:41:10;97984.56;;;11.74;100.00
80976;BME280;70437;49.466;11.002;2023-12-29T12:44:11;97992.50;;;11.69;100.00
80976;BME280;70437;49.466;11.002;2023-12-29T12:46:48;97985.50;;;11.56;100.00
80976;BME280;70437;49.466;11.002;2023-12-29T12:49:20;97990.19;;;11.72;100.00
80976;BME280;70437;49.466;11.002;2023-12-29T12:51:52;97991.03;;;11.61;100.00
80976;BME280;70437;49.466;11.002;2023-12-29T12:54:23;97990.06;;;11.67;100.00
80976;BME280;70437;49.466;11.002;2023-12-29T12:56:56;97965.34;;;11.53;100.00
80976;BME280;70437;49.466;11.002;2023-12-29T12:59:29;97977.94;;;11.53;100.00
80976;BME280;70437;49.466;11.002;2023-12-29T13:01:58;97979.81;;;11.76;100.00
80976;BME280;70437;49.466;11.002;2023-12-29T13:04:30;97990.66;;;11.81;100.00
80976;BME280;70437;49.466;11.002;2023-12-29T13:07:02;97985.06;;;11.94;100.00